createdAt,value
2018-04-08T00:01:00.466Z,8.33
2018-04-08T00:03:27.948Z,8.40
2018-04-08T00:05:55.408Z,8.50
2018-04-08T00:08:22.900Z,8.23
2018-04-08T00:10:50.361Z,7.00
2018-04-08T00:13:17.837Z,7.60
2018-04-08T00:15:45.326Z,7.83
2018-04-08T00:18:12.765Z,7.90
2018-04-08T00:20:40.224Z,7.00
2018-04-08T00:23:07.749Z,6.43
2018-04-08T00:25:35.200Z,7.70
2018-04-08T00:28:02.648Z,7.47
2018-04-08T00:30:30.133Z,9.13
2018-04-08T00:32:57.601Z,7.93
2018-04-08T00:35:25.824Z,7.20
2018-04-08T00:37:53.290Z,7.60
2018-04-08T00:40:20.757Z,6.73
2018-04-08T00:42:48.224Z,6.80
2018-04-08T00:45:15.706Z,6.30
2018-04-08T00:47:44.052Z,7.53
2018-04-08T00:50:11.528Z,7.20
2018-04-08T00:52:38.977Z,7.80
2018-04-08T00:55:06.456Z,9.03
2018-04-08T00:57:33.912Z,9.53
2018-04-08T01:00:01.548Z,9.63
2018-04-08T01:02:28.997Z,8.53
2018-04-08T01:04:56.443Z,7.93
2018-04-08T01:07:23.912Z,9.23
2018-04-08T01:09:51.384Z,8.90
2018-04-08T01:12:18.833Z,9.50
2018-04-08T01:14:46.311Z,10.13
2018-04-08T01:17:13.774Z,8.60
2018-04-08T01:19:41.220Z,8.80
2018-04-08T01:22:08.693Z,8.20
2018-04-08T01:24:36.139Z,9.53
2018-04-08T01:27:03.622Z,9.80
2018-04-08T01:29:31.088Z,9.93
2018-04-08T01:31:58.557Z,9.50
2018-04-08T01:34:26.048Z,9.27
2018-04-08T01:36:53.501Z,10.60
2018-04-08T01:39:20.949Z,9.07
2018-04-08T01:41:48.424Z,8.40
2018-04-08T01:44:15.901Z,9.30
2018-04-08T01:46:43.346Z,9.73
2018-04-08T01:49:10.832Z,10.30
2018-04-08T01:51:38.293Z,9.50
2018-04-08T01:54:05.779Z,11.20
2018-04-08T01:56:33.276Z,10.50
2018-04-08T01:59:00.737Z,8.93
2018-04-08T02:01:28.197Z,10.07
2018-04-08T02:03:55.669Z,11.20
2018-04-08T02:06:23.123Z,11.10
2018-04-08T02:08:50.615Z,11.00
2018-04-08T02:11:18.065Z,10.67
2018-04-08T02:13:46.280Z,10.00
2018-04-08T02:16:13.751Z,10.17
2018-04-08T02:18:41.213Z,10.87
2018-04-08T02:21:08.694Z,11.87
2018-04-08T02:23:36.137Z,10.10
2018-04-08T02:26:03.596Z,10.87
2018-04-08T02:28:31.061Z,10.20
2018-04-08T02:30:58.533Z,10.00
2018-04-08T02:33:25.982Z,9.63
2018-04-08T02:35:53.470Z,9.20
2018-04-08T02:38:20.922Z,10.37
2018-04-08T02:40:48.431Z,10.77
2018-04-08T02:43:15.917Z,9.87
2018-04-08T02:45:43.643Z,10.20
2018-04-08T02:48:11.319Z,10.20
2018-04-08T02:50:38.768Z,10.00
2018-04-08T02:53:06.237Z,9.93
2018-04-08T02:55:33.691Z,9.50
2018-04-08T02:58:01.168Z,10.03
2018-04-08T03:00:28.645Z,13.40
2018-04-08T03:02:56.113Z,12.90
2018-04-08T03:05:23.592Z,11.87
2018-04-08T03:07:51.043Z,13.03
2018-04-08T03:10:18.538Z,13.10
2018-04-08T03:12:46.006Z,12.00
2018-04-08T03:15:13.483Z,10.37
2018-04-08T03:17:41.017Z,10.50
2018-04-08T03:20:09.252Z,13.00
2018-04-08T03:22:37.482Z,10.90
2018-04-08T03:25:04.960Z,11.07
2018-04-08T03:27:32.413Z,11.60
2018-04-08T03:29:59.913Z,12.23
2018-04-08T03:32:27.394Z,12.70
2018-04-08T03:34:54.852Z,11.27
2018-04-08T03:37:22.332Z,10.93
2018-04-08T03:39:49.797Z,11.73
2018-04-08T03:42:17.250Z,11.70
2018-04-08T03:44:44.745Z,12.73
2018-04-08T03:47:12.973Z,11.70
2018-04-08T03:49:40.442Z,10.83
2018-04-08T03:52:07.930Z,11.77
2018-04-08T03:54:35.389Z,11.60
2018-04-08T03:57:02.872Z,11.23
2018-04-08T03:59:30.338Z,11.67
2018-04-08T04:01:57.830Z,12.57
2018-04-08T04:04:25.337Z,10.70
2018-04-08T04:06:53.559Z,10.93
2018-04-08T04:09:21.784Z,11.70
2018-04-08T04:11:49.375Z,11.10
2018-04-08T04:14:16.884Z,11.03
2018-04-08T04:16:44.326Z,11.60
2018-04-08T04:19:23.696Z,12.30
2018-04-08T04:22:03.796Z,11.70
2018-04-08T04:24:43.165Z,11.60
2018-04-08T04:27:10.614Z,11.27
2018-04-08T04:29:38.081Z,12.00
2018-04-08T04:32:05.575Z,11.17
2018-04-08T04:34:33.036Z,13.80
2018-04-08T04:37:00.490Z,14.80
2018-04-08T04:39:28.744Z,12.50
2018-04-08T04:41:56.238Z,11.77
2018-04-08T04:44:23.659Z,13.00
2018-04-08T04:46:51.141Z,14.80
2018-04-08T04:49:18.597Z,11.17
2018-04-08T04:51:46.073Z,12.63
2018-04-08T04:54:13.524Z,13.27
2018-04-08T04:56:41.016Z,12.60
2018-04-08T04:59:08.477Z,11.60
2018-04-08T05:01:36.009Z,12.93
2018-04-08T05:04:03.470Z,13.23
2018-04-08T05:06:30.956Z,12.63
2018-04-08T05:08:58.417Z,12.67
2018-04-08T05:11:25.916Z,12.30
2018-04-08T05:13:53.446Z,10.80
2018-04-08T05:16:20.889Z,11.70
2018-04-08T05:18:48.369Z,12.20
2018-04-08T05:21:15.826Z,12.70
2018-04-08T05:23:43.296Z,9.60
2018-04-08T05:26:10.939Z,10.90
2018-04-08T05:28:39.214Z,11.93
2018-04-08T05:31:06.701Z,11.33
2018-04-08T05:33:34.950Z,11.27
2018-04-08T05:36:02.437Z,11.60
2018-04-08T05:38:30.662Z,11.17
2018-04-08T05:40:58.178Z,12.00
2018-04-08T05:43:25.609Z,11.40
2018-04-08T05:45:53.069Z,11.77
2018-04-08T05:48:20.554Z,12.17
2018-04-08T05:50:48.784Z,12.80
2018-04-08T05:53:16.262Z,11.40
2018-04-08T05:55:43.723Z,11.87
2018-04-08T05:58:11.210Z,12.07
2018-04-08T06:00:39.543Z,10.80
2018-04-08T06:03:07.000Z,13.80
2018-04-08T06:05:34.476Z,13.17
2018-04-08T06:08:01.961Z,12.00
2018-04-08T06:10:30.176Z,12.27
2018-04-08T06:12:57.648Z,12.47
2018-04-08T06:15:25.153Z,11.37
2018-04-08T06:17:52.605Z,11.50
2018-04-08T06:20:20.856Z,11.87
2018-04-08T06:22:48.334Z,10.40
2018-04-08T06:25:15.801Z,12.00
2018-04-08T06:27:44.057Z,11.73
2018-04-08T06:30:11.523Z,13.00
2018-04-08T06:32:38.988Z,11.33
2018-04-08T06:35:06.480Z,11.57
2018-04-08T06:37:33.957Z,10.97
2018-04-08T06:40:01.413Z,11.70
2018-04-08T06:42:28.897Z,11.00
2018-04-08T06:44:56.370Z,11.77
2018-04-08T06:47:23.845Z,11.23
2018-04-08T06:49:52.124Z,9.43
2018-04-08T06:52:19.673Z,10.73
2018-04-08T06:54:47.148Z,10.97
2018-04-08T06:57:14.607Z,11.03
2018-04-08T06:59:42.164Z,9.80
2018-04-08T07:02:10.381Z,9.60
2018-04-08T07:04:37.866Z,10.70
2018-04-08T07:07:05.344Z,10.63
2018-04-08T07:09:32.814Z,9.73
2018-04-08T07:12:01.184Z,10.83
2018-04-08T07:14:28.665Z,11.37
2018-04-08T07:16:56.138Z,10.03
2018-04-08T07:19:23.823Z,10.67
2018-04-08T07:21:51.449Z,11.53
2018-04-08T07:24:19.029Z,9.87
2018-04-08T07:26:46.677Z,11.00
2018-04-08T07:29:15.692Z,9.65
2018-04-08T07:31:43.276Z,11.00
2018-04-08T07:34:10.766Z,11.70
2018-04-08T07:36:38.444Z,12.53
2018-04-08T07:39:07.027Z,11.23
2018-04-08T07:41:34.529Z,12.17
2018-04-08T07:44:02.320Z,10.57
2018-04-08T07:46:30.682Z,11.83
2018-04-08T07:48:58.175Z,11.13
2018-04-08T07:51:25.850Z,10.60
2018-04-08T07:53:53.681Z,10.70
2018-04-08T07:56:21.402Z,11.70
2018-04-08T07:58:48.921Z,11.30
2018-04-08T08:01:17.776Z,10.37
2018-04-08T08:03:45.284Z,10.33
2018-04-08T08:06:12.900Z,11.40
2018-04-08T08:08:40.420Z,11.10
2018-04-08T08:11:07.967Z,11.10
2018-04-08T08:13:35.601Z,10.87
2018-04-08T08:16:03.116Z,11.13
2018-04-08T08:18:30.578Z,10.90
2018-04-08T08:20:58.161Z,11.07
2018-04-08T08:23:25.814Z,11.17
2018-04-08T08:25:53.441Z,9.80
2018-04-08T08:28:20.965Z,10.67
2018-04-08T08:30:48.482Z,11.60
2018-04-08T08:33:16.111Z,10.33
2018-04-08T08:35:43.605Z,10.47
2018-04-08T08:38:11.219Z,11.47
2018-04-08T08:40:38.863Z,10.40
2018-04-08T08:43:07.165Z,10.47
2018-04-08T08:45:34.700Z,11.27
2018-04-08T08:48:02.171Z,9.93
2018-04-08T08:50:30.833Z,9.83
2018-04-08T08:52:59.473Z,10.50
2018-04-08T08:55:27.060Z,9.80
2018-04-08T08:57:54.720Z,10.57
2018-04-08T09:00:22.213Z,9.07
2018-04-08T09:02:49.741Z,8.93
2018-04-08T09:05:17.477Z,9.93
2018-04-08T09:07:45.736Z,8.63
2018-04-08T09:10:14.184Z,9.20
2018-04-08T09:12:42.194Z,9.50
2018-04-08T09:15:09.700Z,9.20
2018-04-08T09:17:37.334Z,8.70
2018-04-08T09:20:06.781Z,9.00
2018-04-08T09:22:40.090Z,8.07
2018-04-08T09:25:07.709Z,8.97
2018-04-08T09:27:35.189Z,9.50
2018-04-08T09:30:03.457Z,9.07
2018-04-08T09:32:31.184Z,9.30
2018-04-08T09:34:58.668Z,9.57
2018-04-08T09:37:26.157Z,8.70
2018-04-08T09:39:53.625Z,8.00
2018-04-08T09:42:21.100Z,7.00
2018-04-08T09:44:48.581Z,6.83
2018-04-08T09:47:16.044Z,8.13
2018-04-08T09:49:43.609Z,8.73
2018-04-08T09:52:11.060Z,7.30
2018-04-08T09:54:38.511Z,9.27
2018-04-08T09:57:06.756Z,9.17
2018-04-08T09:59:34.249Z,8.40
2018-04-08T10:05:01.417Z,8.33
2018-04-08T10:07:28.901Z,8.40
2018-04-08T10:09:57.433Z,7.67
2018-04-08T10:12:26.472Z,8.03
2018-04-08T10:14:54.289Z,8.57
2018-04-08T10:17:21.776Z,7.63
2018-04-08T10:19:49.258Z,8.97
2018-04-08T10:22:16.706Z,8.50
2018-04-08T10:24:44.355Z,9.00
2018-04-08T10:27:11.864Z,10.10
2018-04-08T10:29:39.340Z,7.80
2018-04-08T10:32:06.801Z,9.10
2018-04-08T10:34:34.565Z,7.47
2018-04-08T10:37:02.029Z,7.70
2018-04-08T10:39:29.613Z,8.37
2018-04-08T10:41:57.988Z,9.13
2018-04-08T10:44:25.617Z,9.03
2018-04-08T10:46:53.328Z,8.90
2018-04-08T10:49:20.891Z,8.30
2018-04-08T10:51:49.165Z,8.73
2018-04-08T10:54:17.455Z,10.07
2018-04-08T10:56:45.146Z,8.70
2018-04-08T10:59:12.649Z,8.80
2018-04-08T11:01:40.292Z,7.77
2018-04-08T11:04:07.855Z,8.30
2018-04-08T11:06:35.532Z,8.03
2018-04-08T11:09:02.996Z,7.70
2018-04-08T11:11:31.325Z,9.10
2018-04-08T11:13:59.036Z,8.97
2018-04-08T11:16:26.588Z,8.67
2018-04-08T11:18:54.052Z,8.10
2018-04-08T11:21:22.384Z,9.27
2018-04-08T11:23:49.919Z,8.30
2018-04-08T11:26:17.416Z,9.10
2018-04-08T11:28:45.720Z,9.50
2018-04-08T11:31:14.008Z,9.07
2018-04-08T11:33:42.301Z,8.57
2018-04-08T11:36:09.987Z,8.07
2018-04-08T11:38:37.620Z,8.77
2018-04-08T11:41:06.113Z,8.70
2018-04-08T11:43:33.721Z,8.20
2018-04-08T11:46:01.215Z,8.80
2018-04-08T11:48:29.492Z,9.30
2018-04-08T11:50:57.764Z,7.77
2018-04-08T11:53:25.996Z,6.73
2018-04-08T11:55:53.478Z,7.40
2018-04-08T11:58:21.057Z,6.80
2018-04-08T12:00:49.515Z,6.80
2018-04-08T12:03:17.000Z,6.80
2018-04-08T12:05:45.235Z,7.20
2018-04-08T12:08:12.709Z,7.23
2018-04-08T12:10:41.120Z,7.17
2018-04-08T12:13:08.782Z,6.40
2018-04-08T12:15:36.469Z,6.87
2018-04-08T12:18:03.997Z,7.37
2018-04-08T12:20:32.252Z,5.00
2018-04-08T12:22:59.997Z,6.43
2018-04-08T12:25:27.521Z,6.07
2018-04-08T12:27:55.777Z,6.77
2018-04-08T12:30:23.350Z,6.27
2018-04-08T12:32:51.582Z,5.67
2018-04-08T12:35:19.150Z,6.30
2018-04-08T12:37:46.673Z,5.90
2018-04-08T12:40:14.101Z,6.57
2018-04-08T12:42:41.581Z,6.20
2018-04-08T12:45:09.093Z,6.50
2018-04-08T12:47:36.553Z,6.70
2018-04-08T12:50:04.108Z,5.20
2018-04-08T12:52:31.568Z,5.90
2018-04-08T12:54:59.040Z,6.03
2018-04-08T12:57:26.513Z,5.90
2018-04-08T12:59:53.980Z,7.17
2018-04-08T13:02:21.438Z,6.00
2018-04-08T13:04:49.710Z,5.40
2018-04-08T13:07:17.193Z,5.90
2018-04-08T13:09:44.649Z,6.70
2018-04-08T13:12:12.174Z,6.20
2018-04-08T13:14:40.441Z,5.47
2018-04-08T13:17:07.937Z,6.00
2018-04-08T13:19:35.417Z,5.70
2018-04-08T13:22:02.879Z,4.37
2018-04-08T13:24:30.356Z,6.03
2018-04-08T13:26:57.832Z,6.07
2018-04-08T13:29:25.288Z,5.50
2018-04-08T13:31:52.776Z,5.50
2018-04-08T13:34:20.994Z,6.73
2018-04-08T13:36:48.489Z,5.50
2018-04-08T13:39:15.973Z,5.40
2018-04-08T13:41:43.436Z,5.30
2018-04-08T13:44:10.931Z,5.40
2018-04-08T13:46:38.391Z,5.50
2018-04-08T13:49:05.873Z,5.87
2018-04-08T13:51:33.369Z,5.73
2018-04-08T13:54:00.825Z,6.40
2018-04-08T13:56:28.314Z,4.87
2018-04-08T13:58:55.803Z,5.77
2018-04-08T14:01:23.334Z,5.50
2018-04-08T14:03:50.787Z,3.30
2018-04-08T14:06:18.272Z,3.73
2018-04-08T14:08:45.797Z,3.20
2018-04-08T14:11:13.293Z,2.90
2018-04-08T14:13:40.758Z,3.00
2018-04-08T14:16:08.240Z,4.10
2018-04-08T14:18:36.484Z,3.97
2018-04-08T14:21:03.959Z,2.60
2018-04-08T14:23:31.848Z,2.97
2018-04-08T14:26:00.056Z,2.20
2018-04-08T14:28:27.565Z,2.20
2018-04-08T14:30:55.041Z,3.53
2018-04-08T14:33:22.535Z,2.90
2018-04-08T14:35:50.000Z,3.33
2018-04-08T14:38:18.264Z,3.03
2018-04-08T14:40:45.745Z,2.77
2018-04-08T14:43:13.226Z,2.23
2018-04-08T14:45:40.702Z,2.40
2018-04-08T14:48:08.933Z,3.37
2018-04-08T14:50:36.468Z,3.43
2018-04-08T14:53:03.937Z,3.20
2018-04-08T14:55:31.433Z,3.20
2018-04-08T14:57:58.896Z,2.93
2018-04-08T15:00:26.369Z,3.10
2018-04-08T15:02:53.832Z,3.60
2018-04-08T15:05:21.309Z,3.30
2018-04-08T15:07:48.776Z,3.43
2018-04-08T15:10:16.254Z,3.53
2018-04-08T15:12:43.708Z,4.77
2018-04-08T15:15:11.173Z,4.03
2018-04-08T15:17:38.647Z,4.30
2018-04-08T15:20:06.179Z,4.37
2018-04-08T15:22:33.665Z,4.73
2018-04-08T15:25:01.145Z,3.57
2018-04-08T15:27:28.616Z,3.77
2018-04-08T15:29:56.077Z,3.40
2018-04-08T15:32:24.326Z,5.77
2018-04-08T15:34:51.798Z,9.97
2018-04-08T15:37:19.362Z,4.00
2018-04-08T15:39:47.822Z,4.77
2018-04-08T15:42:15.280Z,3.10
2018-04-08T15:44:42.756Z,3.50
2018-04-08T15:47:11.009Z,2.80
2018-04-08T15:49:38.474Z,3.77
2018-04-08T15:52:05.936Z,2.67
2018-04-08T15:54:33.505Z,2.67
2018-04-08T15:57:00.953Z,2.67
2018-04-08T15:59:28.417Z,3.27
2018-04-08T16:01:55.905Z,3.10
2018-04-08T16:04:23.377Z,2.80
2018-04-08T16:06:50.857Z,2.20
2018-04-08T16:09:18.346Z,2.90
2018-04-08T16:11:45.841Z,3.80
2018-04-08T16:14:14.091Z,2.67
2018-04-08T16:16:41.566Z,2.87
2018-04-08T16:19:09.796Z,2.50
2018-04-08T16:21:38.045Z,3.30
2018-04-08T16:24:05.540Z,4.60
2018-04-08T16:26:33.035Z,3.40
2018-04-08T16:29:01.248Z,4.20
2018-04-08T16:31:28.715Z,3.53
2018-04-08T16:33:56.185Z,2.30
2018-04-08T16:36:23.664Z,2.70
2018-04-08T16:38:51.132Z,2.80
2018-04-08T16:41:19.407Z,2.77
2018-04-08T16:43:46.904Z,4.47
2018-04-08T16:46:14.438Z,2.47
2018-04-08T16:48:42.662Z,3.37
2018-04-08T16:51:10.100Z,5.03
2018-04-08T16:53:37.568Z,6.50
2018-04-08T16:56:05.025Z,8.10
2018-04-08T16:58:32.528Z,17.47
2018-04-08T17:00:59.988Z,7.93
2018-04-08T17:03:27.742Z,3.40
2018-04-08T17:05:55.216Z,3.90
2018-04-08T17:08:22.689Z,4.37
2018-04-08T17:10:50.957Z,2.30
2018-04-08T17:13:19.208Z,2.33
2018-04-08T17:15:46.681Z,3.43
2018-04-08T17:18:14.187Z,2.57
2018-04-08T17:20:41.663Z,3.20
2018-04-08T17:23:09.142Z,3.60
2018-04-08T17:25:36.596Z,2.57
2018-04-08T17:28:04.096Z,3.00
2018-04-08T17:30:31.557Z,2.60
2018-04-08T17:32:59.008Z,3.07
2018-04-08T17:35:26.481Z,2.53
2018-04-08T17:37:53.974Z,2.60
2018-04-08T17:40:22.187Z,2.90
2018-04-08T17:42:49.660Z,4.20
2018-04-08T17:45:17.128Z,12.17
2018-04-08T17:47:44.606Z,4.30
2018-04-08T17:50:12.064Z,2.87
2018-04-08T17:52:39.544Z,14.73
2018-04-08T17:55:07.021Z,4.83
2018-04-08T17:57:34.496Z,134.03
2018-04-08T18:00:01.994Z,181.10
2018-04-08T18:02:29.636Z,110.00
2018-04-08T18:04:57.859Z,36.40
2018-04-08T18:07:25.339Z,8.27
2018-04-08T18:09:52.808Z,4.40
2018-04-08T18:12:20.312Z,5.50
2018-04-08T18:14:47.761Z,4.30
2018-04-08T18:17:15.465Z,5.23
2018-04-08T18:19:42.937Z,8.47
2018-04-08T18:22:10.421Z,3.70
2018-04-08T18:24:37.881Z,14.30
2018-04-08T18:27:06.125Z,4.67
2018-04-08T18:29:33.608Z,4.30
2018-04-08T18:32:01.855Z,4.93
2018-04-08T18:34:29.309Z,4.73
2018-04-08T18:36:56.789Z,4.90
2018-04-08T18:39:24.244Z,4.03
2018-04-08T18:41:51.817Z,4.10
2018-04-08T18:44:20.036Z,3.10
2018-04-08T18:46:47.512Z,2.90
2018-04-08T18:49:15.001Z,2.77
2018-04-08T18:51:42.460Z,3.63
2018-04-08T18:54:09.940Z,3.40
2018-04-08T18:56:38.205Z,2.90
2018-04-08T18:59:06.442Z,3.20
2018-04-08T19:01:33.940Z,3.40
2018-04-08T19:04:02.283Z,3.07
2018-04-08T19:06:29.801Z,3.60
2018-04-08T19:08:57.345Z,3.23
2018-04-08T19:11:24.766Z,3.20
2018-04-08T19:13:52.249Z,3.17
2018-04-08T19:16:20.485Z,3.40
2018-04-08T19:18:48.056Z,2.50
2018-04-08T19:21:15.711Z,3.00
2018-04-08T19:23:43.297Z,3.10
2018-04-08T19:26:10.904Z,2.80
2018-04-08T19:28:38.524Z,2.23
2018-04-08T19:31:06.416Z,2.90
2018-04-08T19:33:33.884Z,3.73
2018-04-08T19:36:01.386Z,3.23
2018-04-08T19:38:28.931Z,3.40
2018-04-08T19:40:56.532Z,3.80
2018-04-08T19:43:25.415Z,3.50
2018-04-08T19:45:53.151Z,3.30
2018-04-08T19:48:21.933Z,3.13
2018-04-08T19:50:49.436Z,3.30
2018-04-08T19:53:17.009Z,3.97
2018-04-08T19:55:45.220Z,5.30
2018-04-08T19:58:12.937Z,4.37
2018-04-08T20:00:41.420Z,4.30
2018-04-08T20:03:08.919Z,3.50
2018-04-08T20:05:36.655Z,4.50
2018-04-08T20:08:04.222Z,3.90
2018-04-08T20:10:31.858Z,4.30
2018-04-08T20:12:59.485Z,3.77
2018-04-08T20:15:27.132Z,3.90
2018-04-08T20:17:55.575Z,3.80
2018-04-08T20:20:23.082Z,4.00
2018-04-08T20:22:50.557Z,4.77
2018-04-08T20:25:18.051Z,4.90
2018-04-08T20:27:45.500Z,4.70
2018-04-08T20:30:12.977Z,4.83
2018-04-08T20:32:41.301Z,5.20
2018-04-08T20:35:08.834Z,4.80
2018-04-08T20:37:36.297Z,5.53
2018-04-08T20:40:03.750Z,4.90
2018-04-08T20:42:31.245Z,6.20
2018-04-08T20:44:58.707Z,6.57
2018-04-08T20:47:26.249Z,6.00
2018-04-08T20:49:53.702Z,7.97
2018-04-08T20:52:21.180Z,9.53
2018-04-08T20:54:48.650Z,9.17
2018-04-08T20:57:16.145Z,10.17
2018-04-08T20:59:43.747Z,9.90
2018-04-08T21:02:11.233Z,10.23
2018-04-08T21:04:38.697Z,9.40
2018-04-08T21:07:06.172Z,10.53
2018-04-08T21:09:34.390Z,9.60
2018-04-08T21:12:01.878Z,8.80
2018-04-08T21:14:29.349Z,7.73
2018-04-08T21:16:56.841Z,8.10
2018-04-08T21:19:24.330Z,7.33
2018-04-08T21:21:51.848Z,8.33
2018-04-08T21:24:20.099Z,7.93
2018-04-08T21:26:47.553Z,8.17
2018-04-08T21:29:15.012Z,7.80
2018-04-08T21:31:42.489Z,9.47
2018-04-08T21:34:09.940Z,8.40
2018-04-08T21:36:37.412Z,9.13
2018-04-08T21:39:05.657Z,10.20
2018-04-08T21:41:33.284Z,10.63
2018-04-08T21:44:00.762Z,10.40
2018-04-08T21:46:28.224Z,9.90
2018-04-08T21:48:55.693Z,13.07
2018-04-08T21:51:23.236Z,12.60
2018-04-08T21:53:50.688Z,11.93
2018-04-08T21:56:18.163Z,10.50
2018-04-08T21:58:45.627Z,10.70
2018-04-08T22:01:14.976Z,12.80
2018-04-08T22:03:42.432Z,14.00
2018-04-08T22:06:09.920Z,15.10
2018-04-08T22:08:37.393Z,19.30
2018-04-08T22:11:04.894Z,13.80
2018-04-08T22:13:33.144Z,14.40
2018-04-08T22:16:00.606Z,17.67
2018-04-08T22:18:28.089Z,19.37
2018-04-08T22:20:56.394Z,16.23
2018-04-08T22:23:23.886Z,15.63
2018-04-08T22:25:51.332Z,15.13
2018-04-08T22:28:18.797Z,15.97
2018-04-08T22:30:46.301Z,14.53
2018-04-08T22:33:14.524Z,15.07
2018-04-08T22:35:41.981Z,16.13
2018-04-08T22:38:09.469Z,15.30
2018-04-08T22:40:36.929Z,14.37
2018-04-08T22:43:04.393Z,16.33
2018-04-08T22:45:31.879Z,16.23
2018-04-08T22:47:59.369Z,17.50
2018-04-08T22:50:27.565Z,18.00
2018-04-08T22:52:55.037Z,17.30
2018-04-08T22:55:22.509Z,16.50
2018-04-08T22:57:49.973Z,17.67
2018-04-08T23:00:25.101Z,16.07
2018-04-08T23:02:52.556Z,19.83
2018-04-08T23:05:20.004Z,21.17
2018-04-08T23:07:47.484Z,20.70
2018-04-08T23:10:14.978Z,20.57
2018-04-08T23:12:42.580Z,21.80
2018-04-08T23:15:10.063Z,24.17
2018-04-08T23:17:37.516Z,24.10
2018-04-08T23:20:05.007Z,24.00
2018-04-08T23:22:32.452Z,25.67
2018-04-08T23:25:00.705Z,24.80
2018-04-08T23:27:28.241Z,23.27
2018-04-08T23:29:55.677Z,23.03
2018-04-08T23:32:23.260Z,24.70
2018-04-08T23:34:50.733Z,24.00
2018-04-08T23:37:18.189Z,25.33
2018-04-08T23:39:45.676Z,29.30
2018-04-08T23:42:13.913Z,28.40
2018-04-08T23:44:41.390Z,30.33
2018-04-08T23:47:08.874Z,30.80
2018-04-08T23:49:37.175Z,31.13
2018-04-08T23:52:04.662Z,31.70
2018-04-08T23:54:32.117Z,34.40
2018-04-08T23:56:59.600Z,33.30
2018-04-08T23:59:27.063Z,30.67
